Andersontown, Pennsylvania
Current Conditions -  °F | °C
As of 8:56 PM on Thursday 20 Nov 2014 (Local Time) from KCXY Reporting Station
Clear Clear  
Wind Chill: 25°   Ceiling: Unl
Heat Index: 31°   Visibility: 10mi
Dew Point: 10°   Wind: 6mph
Humidity: 42%   Direction: 300°WNW
Pressure: 30.06"   Gusts: NA
Location:  40.208°N, 77.0098°W
Report Text: KCXY 210156Z 30005KT 10SM CLR M01/M12 A3006 RMK AO2 SLP183 T10061122
Loading
Personal Weather Stations






























Interactive Weather Map New forecast layout! Learn more

10-Day Weather Forecast

Advertisements
Track Severe Weather on mobile